sensor_id;sensor_type;location;lat;lon;timestamp;temperature;humidity
46730;DHT22;32476;50.002;11.854;2024-03-23T00:52:22;5.70;99.90
46730;DHT22;32476;50.002;11.854;2024-03-23T00:54:49;5.50;99.90
46730;DHT22;32476;50.002;11.854;2024-03-23T00:57:16;5.40;99.90
46730;DHT22;32476;50.002;11.854;2024-03-23T00:59:42;5.50;99.90
46730;DHT22;32476;50.002;11.854;2024-03-23T01:02:08;5.40;99.90
46730;DHT22;32476;50.002;11.854;2024-03-23T01:04:36;5.40;99.90
46730;DHT22;32476;50.002;11.854;2024-03-23T01:07:02;5.70;99.90
46730;DHT22;32476;50.002;11.854;2024-03-23T01:09:28;5.90;99.90
46730;DHT22;32476;50.002;11.854;2024-03-23T01:11:55;5.90;99.90
46730;DHT22;32476;50.002;11.854;2024-03-23T01:14:21;6.10;99.90
46730;DHT22;32476;50.002;11.854;2024-03-23T01:16:48;6.20;99.90
46730;DHT22;32476;50.002;11.854;2024-03-23T01:19:15;6.20;99.90
46730;DHT22;32476;50.002;11.854;2024-03-23T01:21:41;6.40;99.90
46730;DHT22;32476;50.002;11.854;2024-03-23T01:24:08;6.60;99.90
46730;DHT22;32476;50.002;11.854;2024-03-23T01:26:37;6.40;99.90
46730;DHT22;32476;50.002;11.854;2024-03-23T01:29:03;6.60;99.90
46730;DHT22;32476;50.002;11.854;2024-03-23T01:31:29;6.60;99.90
46730;DHT22;32476;50.002;11.854;2024-03-23T01:33:57;6.70;99.90
46730;DHT22;32476;50.002;11.854;2024-03-23T01:36:24;6.60;99.90
46730;DHT22;32476;50.002;11.854;2024-03-23T01:38:50;6.70;99.90
46730;DHT22;32476;50.002;11.854;2024-03-23T01:41:19;6.90;99.90
46730;DHT22;32476;50.002;11.854;2024-03-23T01:43:45;7.00;99.90
46730;DHT22;32476;50.002;11.854;2024-03-23T01:46:11;7.00;99.90
46730;DHT22;32476;50.002;11.854;2024-03-23T01:48:39;7.30;99.90
46730;DHT22;32476;50.002;11.854;2024-03-23T01:51:05;7.40;99.90
46730;DHT22;32476;50.002;11.854;2024-03-23T01:53:32;7.40;99.90
46730;DHT22;32476;50.002;11.854;2024-03-23T01:56:00;7.50;99.90
46730;DHT22;32476;50.002;11.854;2024-03-23T01:58:28;7.50;99.90
46730;DHT22;32476;50.002;11.854;2024-03-23T02:00:54;7.50;99.90
46730;DHT22;32476;50.002;11.854;2024-03-23T02:03:22;7.60;99.90
46730;DHT22;32476;50.002;11.854;2024-03-23T02:05:53;7.50;99.90
46730;DHT22;32476;50.002;11.854;2024-03-23T02:08:22;7.60;99.90
46730;DHT22;32476;50.002;11.854;2024-03-23T02:10:49;7.80;99.90
46730;DHT22;32476;50.002;11.854;2024-03-23T02:13:17;7.90;99.90
46730;DHT22;32476;50.002;11.854;2024-03-23T02:15:45;7.80;99.90
46730;DHT22;32476;50.002;11.854;2024-03-23T02:18:11;7.90;99.90
46730;DHT22;32476;50.002;11.854;2024-03-23T02:20:38;7.90;99.90
46730;DHT22;32476;50.002;11.854;2024-03-23T02:23:05;7.90;99.90
46730;DHT22;32476;50.002;11.854;2024-03-23T02:25:32;7.90;99.90
46730;DHT22;32476;50.002;11.854;2024-03-23T02:27:59;7.90;99.90
46730;DHT22;32476;50.002;11.854;2024-03-23T02:30:27;7.90;99.90
46730;DHT22;32476;50.002;11.854;2024-03-23T02:32:53;7.90;99.90
46730;DHT22;32476;50.002;11.854;2024-03-23T02:35:19;8.00;99.90
46730;DHT22;32476;50.002;11.854;2024-03-23T02:37:47;8.00;99.90
46730;DHT22;32476;50.002;11.854;2024-03-23T02:40:16;7.90;99.90
46730;DHT22;32476;50.002;11.854;2024-03-23T02:42:43;7.90;99.90
46730;DHT22;32476;50.002;11.854;2024-03-23T02:45:10;7.80;99.90
46730;DHT22;32476;50.002;11.854;2024-03-23T02:47:36;7.80;99.90
46730;DHT22;32476;50.002;11.854;2024-03-23T02:50:02;7.70;99.90
46730;DHT22;32476;50.002;11.854;2024-03-23T02:52:31;7.70;99.90
46730;DHT22;32476;50.002;11.854;2024-03-23T02:54:57;7.60;99.90
46730;DHT22;32476;50.002;11.854;2024-03-23T02:57:23;7.60;99.90
46730;DHT22;32476;50.002;11.854;2024-03-23T02:59:51;7.70;99.90
46730;DHT22;32476;50.002;11.854;2024-03-23T03:02:17;7.70;99.90
46730;DHT22;32476;50.002;11.854;2024-03-23T03:04:42;7.80;99.90
46730;DHT22;32476;50.002;11.854;2024-03-23T03:07:10;7.80;99.90
46730;DHT22;32476;50.002;11.854;2024-03-23T03:09:36;7.90;99.90
46730;DHT22;32476;50.002;11.854;2024-03-23T03:12:05;8.00;99.90
46730;DHT22;32476;50.002;11.854;2024-03-23T03:14:34;8.00;99.90
46730;DHT22;32476;50.002;11.854;2024-03-23T03:17:00;7.90;99.90
46730;DHT22;32476;50.002;11.854;2024-03-23T03:19:27;7.90;99.90
46730;DHT22;32476;50.002;11.854;2024-03-23T03:21:54;7.70;99.90
46730;DHT22;32476;50.002;11.854;2024-03-23T03:24:20;7.80;99.90
46730;DHT22;32476;50.002;11.854;2024-03-23T03:26:47;7.80;99.90
46730;DHT22;32476;50.002;11.854;2024-03-23T03:29:14;7.80;99.90
46730;DHT22;32476;50.002;11.854;2024-03-23T03:31:40;7.70;99.90
46730;DHT22;32476;50.002;11.854;2024-03-23T03:34:06;7.60;99.90
46730;DHT22;32476;50.002;11.854;2024-03-23T03:36:33;7.60;99.90
46730;DHT22;32476;50.002;11.854;2024-03-23T03:38:59;7.60;99.90
46730;DHT22;32476;50.002;11.854;2024-03-23T03:41:25;7.60;99.90
46730;DHT22;32476;50.002;11.854;2024-03-23T03:43:53;7.60;99.90
46730;DHT22;32476;50.002;11.854;2024-03-23T03:46:20;7.60;99.90
46730;DHT22;32476;50.002;11.854;2024-03-23T03:48:46;7.60;99.90
46730;DHT22;32476;50.002;11.854;2024-03-23T03:51:15;7.50;99.90
46730;DHT22;32476;50.002;11.854;2024-03-23T03:53:41;7.60;99.90
46730;DHT22;32476;50.002;11.854;2024-03-23T03:56:07;7.60;99.90
46730;DHT22;32476;50.002;11.854;2024-03-23T03:58:35;7.50;99.90
46730;DHT22;32476;50.002;11.854;2024-03-23T04:01:01;7.50;99.90
46730;DHT22;32476;50.002;11.854;2024-03-23T04:03:26;7.50;99.90
46730;DHT22;32476;50.002;11.854;2024-03-23T04:05:55;7.40;99.90
46730;DHT22;32476;50.002;11.854;2024-03-23T04:08:21;7.40;99.90
46730;DHT22;32476;50.002;11.854;2024-03-23T04:10:47;7.30;99.90
46730;DHT22;32476;50.002;11.854;2024-03-23T04:13:15;7.40;99.90
46730;DHT22;32476;50.002;11.854;2024-03-23T04:15:42;7.30;99.90
46730;DHT22;32476;50.002;11.854;2024-03-23T04:18:08;7.30;99.90
46730;DHT22;32476;50.002;11.854;2024-03-23T04:20:36;7.20;99.90
46730;DHT22;32476;50.002;11.854;2024-03-23T04:23:02;7.20;99.90
46730;DHT22;32476;50.002;11.854;2024-03-23T04:25:28;7.10;99.90
46730;DHT22;32476;50.002;11.854;2024-03-23T04:27:56;7.20;99.90
46730;DHT22;32476;50.002;11.854;2024-03-23T04:30:22;7.20;99.90
46730;DHT22;32476;50.002;11.854;2024-03-23T04:32:50;7.30;99.90
46730;DHT22;32476;50.002;11.854;2024-03-23T04:35:18;7.40;99.90
46730;DHT22;32476;50.002;11.854;2024-03-23T04:37:45;7.40;99.90
46730;DHT22;32476;50.002;11.854;2024-03-23T04:40:11;7.40;99.90
46730;DHT22;32476;50.002;11.854;2024-03-23T04:42:39;7.40;99.90
46730;DHT22;32476;50.002;11.854;2024-03-23T04:45:05;7.40;99.90
46730;DHT22;32476;50.002;11.854;2024-03-23T04:47:32;7.40;99.90
46730;DHT22;32476;50.002;11.854;2024-03-23T04:49:59;7.50;99.90
46730;DHT22;32476;50.002;11.854;2024-03-23T04:52:26;7.60;99.90
46730;DHT22;32476;50.002;11.854;2024-03-23T04:54:52;7.60;99.90
46730;DHT22;32476;50.002;11.854;2024-03-23T04:57:20;7.70;99.90
46730;DHT22;32476;50.002;11.854;2024-03-23T06:06:48;7.30;99.90
46730;DHT22;32476;50.002;11.854;2024-03-23T06:09:16;7.30;99.90
46730;DHT22;32476;50.002;11.854;2024-03-23T06:11:41;7.40;99.90
46730;DHT22;32476;50.002;11.854;2024-03-23T06:14:07;7.40;99.90
46730;DHT22;32476;50.002;11.854;2024-03-23T06:16:35;7.50;99.90
46730;DHT22;32476;50.002;11.854;2024-03-23T06:19:01;7.50;99.90
46730;DHT22;32476;50.002;11.854;2024-03-23T06:21:30;7.60;99.90
46730;DHT22;32476;50.002;11.854;2024-03-23T06:23:57;7.60;99.90
46730;DHT22;32476;50.002;11.854;2024-03-23T06:26:23;7.80;99.90
46730;DHT22;32476;50.002;11.854;2024-03-23T06:28:49;7.80;99.90
46730;DHT22;32476;50.002;11.854;2024-03-23T06:31:17;7.90;99.90
46730;DHT22;32476;50.002;11.854;2024-03-23T06:33:43;7.90;99.90
46730;DHT22;32476;50.002;11.854;2024-03-23T06:36:10;8.00;99.90
46730;DHT22;32476;50.002;11.854;2024-03-23T06:38:38;8.10;99.90
46730;DHT22;32476;50.002;11.854;2024-03-23T06:41:04;8.10;99.90
46730;DHT22;32476;50.002;11.854;2024-03-23T06:43:31;8.10;99.90
46730;DHT22;32476;50.002;11.854;2024-03-23T06:45:58;8.10;99.90
46730;DHT22;32476;50.002;11.854;2024-03-23T06:48:24;8.10;99.90
46730;DHT22;32476;50.002;11.854;2024-03-23T06:50:58;8.00;99.90
46730;DHT22;32476;50.002;11.854;2024-03-23T06:53:25;8.00;99.90
46730;DHT22;32476;50.002;11.854;2024-03-23T06:55:53;8.00;99.90
46730;DHT22;32476;50.002;11.854;2024-03-23T06:58:20;8.00;99.90
46730;DHT22;32476;50.002;11.854;2024-03-23T07:00:48;7.90;99.90
46730;DHT22;32476;50.002;11.854;2024-03-23T07:03:15;7.90;99.90
46730;DHT22;32476;50.002;11.854;2024-03-23T07:05:42;8.00;99.90
46730;DHT22;32476;50.002;11.854;2024-03-23T07:08:10;8.00;99.90
46730;DHT22;32476;50.002;11.854;2024-03-23T07:10:39;8.00;99.90
46730;DHT22;32476;50.002;11.854;2024-03-23T07:13:05;8.00;99.90
46730;DHT22;32476;50.002;11.854;2024-03-23T07:15:33;8.00;99.90
46730;DHT22;32476;50.002;11.854;2024-03-23T07:17:59;7.90;99.90
46730;DHT22;32476;50.002;11.854;2024-03-23T07:20:25;7.90;99.90
46730;DHT22;32476;50.002;11.854;2024-03-23T07:22:53;7.90;99.90
46730;DHT22;32476;50.002;11.854;2024-03-23T07:25:19;7.80;99.90
